createdAt,value
2018-05-12T04:33:37.639Z,1003.77
2018-05-12T04:34:37.637Z,1003.74
2018-05-12T04:35:37.593Z,1003.77
2018-05-12T04:36:37.729Z,1003.77
2018-05-12T04:37:37.586Z,1003.75
2018-05-12T04:38:37.568Z,1003.79
2018-05-12T04:39:37.568Z,1003.77
2018-05-12T04:40:37.550Z,1003.82
2018-05-12T04:41:37.540Z,1003.77
2018-05-12T04:42:37.676Z,1003.78
2018-05-12T04:43:37.517Z,1003.81
2018-05-12T04:44:37.511Z,1003.77
2018-05-12T04:45:37.500Z,1003.78
2018-05-12T04:46:37.490Z,1003.79
2018-05-12T04:47:37.489Z,1003.80
2018-05-12T04:48:37.467Z,1003.79
2018-05-12T04:49:37.456Z,1003.83
2018-05-12T04:50:37.452Z,1003.81
2018-05-12T04:51:37.445Z,1003.80
2018-05-12T04:52:37.432Z,1003.79
2018-05-12T04:53:37.457Z,1003.76
2018-05-12T04:54:37.445Z,1003.77
2018-05-12T04:55:37.405Z,1003.75
2018-05-12T04:56:37.539Z,1003.77
2018-05-12T04:57:37.391Z,1003.75
2018-05-12T04:58:37.373Z,1003.77
2018-05-12T04:59:37.442Z,1003.78
2018-05-12T05:00:37.358Z,1003.77
2018-05-12T05:01:37.350Z,1003.80
2018-05-12T05:02:37.373Z,1003.82
2018-05-12T05:03:37.319Z,1003.82
2018-05-12T05:04:37.319Z,1003.82
2018-05-12T05:05:37.322Z,1003.81
2018-05-12T05:06:37.301Z,1003.76
2018-05-12T05:07:37.423Z,1003.80
2018-05-12T05:08:37.289Z,1003.79
2018-05-12T05:09:37.272Z,1003.77
2018-05-12T05:10:37.264Z,1003.78
2018-05-12T05:11:37.251Z,1003.80
2018-05-12T05:12:37.240Z,1003.79
2018-05-12T05:13:37.247Z,1003.83
2018-05-12T05:14:37.229Z,1003.81
2018-05-12T05:15:37.279Z,1003.82
2018-05-12T05:16:37.204Z,1003.85
2018-05-12T05:17:37.200Z,1003.80
2018-05-12T05:18:37.196Z,1003.85
2018-05-12T05:19:37.184Z,1003.81
2018-05-12T05:20:37.173Z,1003.84
2018-05-12T05:21:37.207Z,1003.85
2018-05-12T05:22:37.169Z,1003.84
2018-05-12T05:23:37.142Z,1003.88
2018-05-12T05:24:37.143Z,1003.85
2018-05-12T05:25:37.129Z,1003.85
2018-05-12T05:26:38.429Z,1003.86
2018-05-12T05:27:37.111Z,1003.85
2018-05-12T05:28:37.095Z,1003.81
2018-05-12T05:29:37.092Z,1003.81
2018-05-12T05:30:37.094Z,1003.80
2018-05-12T05:31:37.071Z,1003.83
2018-05-12T05:32:37.274Z,1003.86
2018-05-12T05:33:37.053Z,1003.82
2018-05-12T05:34:37.056Z,1003.84
2018-05-12T05:35:37.040Z,1003.82
2018-05-12T05:36:37.038Z,1003.84
2018-05-12T05:37:37.078Z,1003.84
2018-05-12T05:38:37.086Z,1003.81
2018-05-12T05:39:37.007Z,1003.82
2018-05-12T05:40:36.998Z,1003.86
2018-05-12T05:41:37.007Z,1003.85
2018-05-12T05:42:36.994Z,1003.85
2018-05-12T05:43:37.013Z,1003.88
2018-05-12T05:44:36.967Z,1003.86
2018-05-12T05:45:36.948Z,1003.86
2018-05-12T05:46:36.999Z,1003.86
2018-05-12T05:47:36.948Z,1003.82
2018-05-12T05:48:37.996Z,1003.85
2018-05-12T05:49:36.952Z,1003.80
2018-05-12T05:50:36.901Z,1003.79
2018-05-12T05:51:36.896Z,1003.81
2018-05-12T05:52:36.894Z,1003.79
2018-05-12T05:53:37.619Z,1003.80
2018-05-12T05:54:36.885Z,1003.78
2018-05-12T05:55:37.069Z,1003.76
2018-05-12T05:56:37.074Z,1003.78
2018-05-12T05:57:36.850Z,1003.77
2018-05-12T05:58:36.931Z,1003.76
2018-05-12T05:59:36.861Z,1003.73
2018-05-12T06:00:36.839Z,1003.70
2018-05-12T06:01:36.826Z,1003.73
2018-05-12T06:02:36.810Z,1003.72
2018-05-12T06:03:36.799Z,1003.69
2018-05-12T06:04:36.800Z,1003.72
2018-05-12T06:05:36.778Z,1003.71
2018-05-12T06:06:36.781Z,1003.73
2018-05-12T06:07:36.774Z,1003.74
2018-05-12T06:08:36.762Z,1003.71
2018-05-12T06:09:36.787Z,1003.71
2018-05-12T06:10:36.772Z,1003.72
2018-05-12T06:11:36.741Z,1003.71
2018-05-12T06:12:36.762Z,1003.77
2018-05-12T06:13:36.719Z,1003.75
2018-05-12T06:14:37.356Z,1003.74
2018-05-12T06:15:36.741Z,1003.70
2018-05-12T06:16:36.723Z,1003.72
2018-05-12T06:17:36.725Z,1003.77
2018-05-12T06:18:36.707Z,1003.72
2018-05-12T06:19:36.675Z,1003.75
2018-05-12T06:20:36.651Z,1003.75
2018-05-12T06:21:36.657Z,1003.77
2018-05-12T06:22:36.704Z,1003.77
2018-05-12T06:23:36.639Z,1003.77
2018-05-12T06:24:36.653Z,1003.81
2018-05-12T06:25:36.612Z,1003.85
2018-05-12T06:26:36.619Z,1003.80
2018-05-12T06:27:36.680Z,1003.85
2018-05-12T06:28:36.636Z,1003.81
2018-05-12T06:29:36.586Z,1003.85
2018-05-12T06:30:36.582Z,1003.87
2018-05-12T06:31:36.580Z,1003.80
2018-05-12T06:32:36.573Z,1003.84
2018-05-12T06:33:36.699Z,1003.84
2018-05-12T06:34:36.563Z,1003.83
2018-05-12T06:35:36.548Z,1003.78
2018-05-12T06:36:36.539Z,1003.80
2018-05-12T06:37:36.525Z,1003.82
2018-05-12T06:38:36.507Z,1003.78
2018-05-12T06:39:36.518Z,1003.80
2018-05-12T06:40:36.493Z,1003.82
2018-05-12T06:41:36.495Z,1003.81
2018-05-12T06:42:36.482Z,1003.80
2018-05-12T06:43:36.474Z,1003.80
2018-05-12T06:44:36.917Z,1003.78
2018-05-12T06:45:36.462Z,1003.79
2018-05-12T06:46:36.463Z,1003.83
2018-05-12T06:47:36.445Z,1003.82
2018-05-12T06:48:36.437Z,1003.82
2018-05-12T06:49:36.422Z,1003.79
2018-05-12T06:50:36.460Z,1003.78
2018-05-12T06:51:36.424Z,1003.79
2018-05-12T06:52:36.419Z,1003.80
2018-05-12T06:53:36.459Z,1003.86
2018-05-12T06:54:36.436Z,1003.83
2018-05-12T06:55:36.379Z,1003.83
2018-05-12T06:56:36.383Z,1003.85
2018-05-12T06:57:36.375Z,1003.85
2018-05-12T06:58:36.366Z,1003.83
2018-05-12T06:59:36.385Z,1003.83
2018-05-12T07:00:36.347Z,1003.86
2018-05-12T07:01:36.344Z,1003.84
2018-05-12T07:02:36.362Z,1003.84
2018-05-12T07:03:36.323Z,1003.87
2018-05-12T07:04:36.334Z,1003.85
2018-05-12T07:05:36.310Z,1003.83
2018-05-12T07:06:36.304Z,1003.82
2018-05-12T07:07:36.442Z,1003.82
2018-05-12T07:08:36.362Z,1003.81
2018-05-12T07:09:36.293Z,1003.86
2018-05-12T07:10:36.276Z,1003.79
2018-05-12T07:11:36.266Z,1003.82
2018-05-12T07:12:36.250Z,1003.77
2018-05-12T07:13:36.256Z,1003.78
2018-05-12T07:14:36.238Z,1003.80
2018-05-12T07:15:36.236Z,1003.79
2018-05-12T07:16:36.239Z,1003.78
2018-05-12T07:17:36.319Z,1003.82
2018-05-12T07:18:36.217Z,1003.80
2018-05-12T07:19:36.205Z,1003.80
2018-05-12T07:20:36.208Z,1003.75
2018-05-12T07:21:36.228Z,1003.78
2018-05-12T07:22:36.506Z,1003.79
2018-05-12T07:23:36.181Z,1003.77
2018-05-12T07:24:36.175Z,1003.77
2018-05-12T07:25:36.176Z,1003.78
2018-05-12T07:26:36.162Z,1003.79
2018-05-12T07:27:36.152Z,1003.80
2018-05-12T07:28:36.373Z,1003.78
2018-05-12T07:29:36.231Z,1003.80
2018-05-12T07:30:36.131Z,1003.75
2018-05-12T07:31:36.128Z,1003.78
2018-05-12T07:32:36.145Z,1003.79
2018-05-12T07:33:36.114Z,1003.81
2018-05-12T07:34:36.104Z,1003.83
2018-05-12T07:35:36.093Z,1003.84
2018-05-12T07:36:36.151Z,1003.79
2018-05-12T07:37:36.122Z,1003.80
2018-05-12T07:38:36.072Z,1003.81
2018-05-12T07:39:36.505Z,1003.79
2018-05-12T07:40:36.060Z,1003.82
2018-05-12T07:41:36.055Z,1003.80
2018-05-12T07:42:36.047Z,1003.82
2018-05-12T07:43:36.042Z,1003.76
2018-05-12T07:44:36.035Z,1003.79
2018-05-12T07:45:36.102Z,1003.74
2018-05-12T07:46:36.023Z,1003.73
2018-05-12T07:47:36.015Z,1003.75
2018-05-12T07:48:36.009Z,1003.78
2018-05-12T07:49:36.038Z,1003.82
2018-05-12T07:50:36.003Z,1003.76
2018-05-12T07:51:36.046Z,1003.77
2018-05-12T07:52:35.988Z,1003.75
2018-05-12T07:53:35.983Z,1003.78
2018-05-12T07:54:36.109Z,1003.78
2018-05-12T07:55:35.965Z,1003.77
2018-05-12T07:56:35.961Z,1003.75
2018-05-12T07:57:35.957Z,1003.74
2018-05-12T07:58:36.040Z,1003.74
2018-05-12T07:59:35.932Z,1003.72
2018-05-12T08:00:35.945Z,1003.71
2018-05-12T08:01:35.926Z,1003.71
2018-05-12T08:02:35.913Z,1003.72
2018-05-12T08:03:35.919Z,1003.72
2018-05-12T08:04:35.901Z,1003.70
2018-05-12T08:05:35.924Z,1003.73
2018-05-12T08:06:35.959Z,1003.73
2018-05-12T08:07:35.875Z,1003.72
2018-05-12T08:08:35.872Z,1003.76
2018-05-12T08:09:35.880Z,1003.70
2018-05-12T08:10:35.868Z,1003.72
2018-05-12T08:11:35.848Z,1003.69
2018-05-12T08:12:35.859Z,1003.67
2018-05-12T08:13:35.843Z,1003.66
2018-05-12T08:14:35.845Z,1003.66
2018-05-12T08:15:35.844Z,1003.61
2018-05-12T08:16:35.829Z,1003.61
2018-05-12T08:17:35.898Z,1003.60
2018-05-12T08:18:35.810Z,1003.65
2018-05-12T08:19:35.794Z,1003.65
2018-05-12T08:20:35.825Z,1003.61
2018-05-12T08:21:35.792Z,1003.63
2018-05-12T08:22:35.786Z,1003.59
2018-05-12T08:23:35.804Z,1003.60
2018-05-12T08:24:35.780Z,1003.58
2018-05-12T08:25:35.769Z,1003.56
2018-05-12T08:26:35.765Z,1003.59
2018-05-12T08:27:35.747Z,1003.58
2018-05-12T08:28:35.785Z,1003.54
2018-05-12T08:29:35.751Z,1003.51
2018-05-12T08:30:35.732Z,1003.53
2018-05-12T08:31:35.736Z,1003.49
2018-05-12T08:32:35.723Z,1003.53
2018-05-12T08:33:35.756Z,1003.53
2018-05-12T08:34:35.706Z,1003.53
2018-05-12T08:35:35.772Z,1003.50
2018-05-12T08:36:35.984Z,1003.54
2018-05-12T08:37:35.749Z,1003.52
2018-05-12T08:38:35.934Z,1003.53
2018-05-12T08:39:35.708Z,1003.51
2018-05-12T08:40:35.795Z,1003.47
2018-05-12T08:41:38.406Z,1003.54
2018-05-12T08:42:35.665Z,1003.49
2018-05-12T08:43:35.658Z,1003.52
2018-05-12T08:44:35.787Z,1003.52
2018-05-12T08:45:35.677Z,1003.49
2018-05-12T08:46:37.518Z,1003.53
2018-05-12T08:47:35.632Z,1003.51
2018-05-12T08:48:35.627Z,1003.52
2018-05-12T08:49:35.630Z,1003.48
2018-05-12T08:50:36.490Z,1003.50
2018-05-12T08:51:35.679Z,1003.49
2018-05-12T08:52:36.499Z,1003.51
2018-05-12T08:53:35.597Z,1003.52
2018-05-12T08:54:44.414Z,1003.49
2018-05-12T08:55:35.590Z,1003.45
2018-05-12T08:56:35.628Z,1003.45
2018-05-12T08:57:35.629Z,1003.43
2018-05-12T08:58:35.607Z,1003.41
2018-05-12T08:59:35.757Z,1003.45
2018-05-12T09:00:35.588Z,1003.42
2018-05-12T09:01:35.561Z,1003.44
2018-05-12T09:02:35.618Z,1003.42
2018-05-12T09:03:35.784Z,1003.44
2018-05-12T09:04:35.719Z,1003.43
2018-05-12T09:05:35.552Z,1003.45
2018-05-12T09:06:37.834Z,1003.46
2018-05-12T09:07:35.544Z,1003.40
2018-05-12T09:08:35.568Z,1003.40
2018-05-12T09:09:35.536Z,1003.33
2018-05-12T09:10:35.523Z,1003.37
2018-05-12T09:11:35.584Z,1003.31
2018-05-12T09:12:36.094Z,1003.27
2018-05-12T09:13:35.573Z,1003.31
2018-05-12T09:14:35.512Z,1003.29
2018-05-12T09:15:35.507Z,1003.31
2018-05-12T09:16:35.510Z,1003.29
2018-05-12T09:17:35.660Z,1003.34
2018-05-12T09:18:35.620Z,1003.31
2018-05-12T09:19:35.539Z,1003.31
2018-05-12T09:20:35.498Z,1003.32
2018-05-12T09:21:35.480Z,1003.25
2018-05-12T09:22:35.524Z,1003.31
2018-05-12T09:23:35.849Z,1003.26
2018-05-12T09:24:35.477Z,1003.24
2018-05-12T09:25:35.482Z,1003.23
2018-05-12T09:26:36.503Z,1003.27
2018-05-12T09:27:35.474Z,1003.32
2018-05-12T09:28:35.448Z,1003.30
2018-05-12T09:29:35.483Z,1003.25
2018-05-12T09:30:35.452Z,1003.24
2018-05-12T09:31:35.467Z,1003.27
2018-05-12T09:32:35.450Z,1003.27
2018-05-12T09:33:35.447Z,1003.26
2018-05-12T09:34:35.468Z,1003.28
2018-05-12T09:35:36.538Z,1003.28
2018-05-12T09:36:35.423Z,1003.27
2018-05-12T09:37:35.448Z,1003.29
2018-05-12T09:38:35.541Z,1003.26
2018-05-12T09:39:35.422Z,1003.27
2018-05-12T09:40:35.415Z,1003.22
2018-05-12T09:41:35.424Z,1003.23
2018-05-12T09:42:35.453Z,1003.23
2018-05-12T09:43:35.450Z,1003.20
2018-05-12T09:44:35.413Z,1003.23
2018-05-12T09:45:35.419Z,1003.22
2018-05-12T09:46:35.392Z,1003.22
2018-05-12T09:47:35.381Z,1003.19
2018-05-12T09:48:35.377Z,1003.20
2018-05-12T09:49:35.416Z,1003.21
2018-05-12T09:50:35.398Z,1003.24
2018-05-12T09:51:35.411Z,1003.20
2018-05-12T09:52:35.367Z,1003.19
2018-05-12T09:53:35.364Z,1003.24
2018-05-12T09:54:35.365Z,1003.31
2018-05-12T09:55:35.349Z,1003.24
2018-05-12T09:56:35.387Z,1003.27
2018-05-12T09:57:35.343Z,1003.26
2018-05-12T09:58:35.350Z,1003.19
2018-05-12T09:59:35.410Z,1003.15
2018-05-12T10:00:35.332Z,1003.24
2018-05-12T10:01:35.377Z,1003.14
2018-05-12T10:02:35.324Z,1003.19
2018-05-12T10:03:35.327Z,1003.19
2018-05-12T10:04:35.323Z,1003.28
2018-05-12T10:05:35.331Z,1003.28
2018-05-12T10:06:35.358Z,1003.33
2018-05-12T10:07:35.325Z,1003.30
2018-05-12T10:08:35.311Z,1003.33
2018-05-12T10:09:35.310Z,1003.34
2018-05-12T10:10:35.319Z,1003.25
2018-05-12T10:11:35.320Z,1003.19
2018-05-12T10:12:35.317Z,1003.34
2018-05-12T10:13:35.349Z,1003.36
2018-05-12T10:14:35.323Z,1003.40
2018-05-12T10:15:35.370Z,1003.42
2018-05-12T10:16:35.406Z,1003.42
2018-05-12T10:17:35.352Z,1003.48
2018-05-12T10:18:35.345Z,1003.42
2018-05-12T10:19:35.361Z,1003.47
2018-05-12T10:20:35.364Z,1003.45
2018-05-12T10:21:35.468Z,1003.51
2018-05-12T10:22:35.329Z,1003.59
2018-05-12T10:23:35.323Z,1003.95
2018-05-12T10:24:35.464Z,1004.22
2018-05-12T10:25:35.335Z,1003.79
2018-05-12T10:26:35.328Z,1003.62
2018-05-12T10:27:35.341Z,1003.55
2018-05-12T10:28:35.356Z,1003.61
2018-05-12T10:29:35.357Z,1003.55
2018-05-12T10:30:35.361Z,1003.58
2018-05-12T10:31:35.345Z,1003.65
2018-05-12T10:32:35.382Z,1003.64
2018-05-12T10:33:35.498Z,1003.56
2018-05-12T10:34:35.374Z,1003.52
2018-05-12T10:35:35.413Z,1002.96
2018-05-12T10:36:35.438Z,1002.99
2018-05-12T10:37:35.384Z,1003.02
2018-05-12T10:38:35.388Z,1003.02
2018-05-12T10:39:35.394Z,1002.97
2018-05-12T10:40:35.440Z,1002.97
2018-05-12T10:41:35.404Z,1002.93
2018-05-12T10:42:35.410Z,1003.05
2018-05-12T10:43:35.422Z,1003.04
2018-05-12T10:44:35.412Z,1002.91
2018-05-12T10:45:35.421Z,1003.04
2018-05-12T10:46:35.420Z,1003.04
2018-05-12T10:47:35.432Z,1003.17
2018-05-12T10:48:35.633Z,1002.98
2018-05-12T10:49:35.434Z,1003.00
2018-05-12T10:50:35.507Z,1003.00
2018-05-12T10:51:35.435Z,1003.10
2018-05-12T10:52:36.073Z,1003.12
2018-05-12T10:53:36.083Z,1002.97
2018-05-12T10:54:36.068Z,1002.89
2018-05-12T10:55:35.438Z,1002.88
2018-05-12T10:56:35.614Z,1002.85
2018-05-12T10:57:35.437Z,1002.88
2018-05-12T10:58:35.443Z,1002.83
2018-05-12T10:59:35.457Z,1002.79
2018-05-12T11:00:35.466Z,1002.81
2018-05-12T11:01:36.082Z,1002.75
2018-05-12T11:02:35.436Z,1002.76
2018-05-12T11:03:35.437Z,1002.70
2018-05-12T11:04:35.443Z,1002.75
2018-05-12T11:05:35.433Z,1002.73
2018-05-12T11:06:35.628Z,1002.73
2018-05-12T11:07:35.449Z,1002.77
2018-05-12T11:08:35.482Z,1002.74
2018-05-12T11:09:35.477Z,1002.85
2018-05-12T11:10:35.433Z,1002.80
2018-05-12T11:11:35.449Z,1002.76
2018-05-12T11:12:35.472Z,1002.72
2018-05-12T11:13:35.437Z,1002.71
2018-05-12T11:14:35.440Z,1002.64
2018-05-12T11:15:35.433Z,1002.68
2018-05-12T11:16:35.423Z,1002.70
2018-05-12T11:17:35.464Z,1002.61
2018-05-12T11:18:35.423Z,1002.63
2018-05-12T11:19:36.085Z,1002.60
2018-05-12T11:20:35.424Z,1002.82
2018-05-12T11:21:35.492Z,1002.85
2018-05-12T11:22:35.499Z,1002.82
2018-05-12T11:23:35.425Z,1002.59
2018-05-12T11:24:35.419Z,1002.53
2018-05-12T11:25:35.426Z,1002.60
2018-05-12T11:26:35.494Z,1002.58
2018-05-12T11:27:35.431Z,1002.55
2018-05-12T11:28:35.539Z,1002.54
2018-05-12T11:29:35.415Z,1002.54
2018-05-12T11:30:35.431Z,1002.57
2018-05-12T11:31:35.445Z,1002.53
2018-05-12T11:32:35.471Z,1002.56
2018-05-12T11:33:36.155Z,1002.56
2018-05-12T11:34:35.409Z,1002.52
2018-05-12T11:35:35.398Z,1002.51
2018-05-12T11:36:35.444Z,1002.53
2018-05-12T11:37:35.393Z,1002.51
2018-05-12T11:38:35.399Z,1002.50
2018-05-12T11:39:35.402Z,1002.50
2018-05-12T11:40:35.394Z,1002.51
2018-05-12T11:41:35.382Z,1002.49
2018-05-12T11:42:35.394Z,1002.48
2018-05-12T11:43:35.434Z,1002.47
2018-05-12T11:44:35.412Z,1002.47
2018-05-12T11:45:35.406Z,1002.46
2018-05-12T11:46:35.395Z,1002.51
2018-05-12T11:47:36.121Z,1002.85
2018-05-12T11:48:35.381Z,1002.62
2018-05-12T11:49:35.639Z,1002.50
2018-05-12T11:50:35.389Z,1003.35
2018-05-12T11:51:35.429Z,1002.43
2018-05-12T11:52:35.361Z,1002.38
2018-05-12T11:53:35.360Z,1002.39
2018-05-12T11:54:35.362Z,1002.40
2018-05-12T11:55:35.355Z,1002.37
2018-05-12T11:56:35.350Z,1002.37
2018-05-12T11:57:35.382Z,1002.40
2018-05-12T11:58:35.361Z,1002.34
2018-05-12T11:59:35.341Z,1002.37
2018-05-12T12:00:35.348Z,1002.35
2018-05-12T12:01:35.382Z,1002.34
2018-05-12T12:02:35.496Z,1002.27
2018-05-12T12:03:35.397Z,1002.33
2018-05-12T12:04:35.338Z,1002.30
2018-05-12T12:05:35.332Z,1002.32
2018-05-12T12:06:35.334Z,1002.34
2018-05-12T12:07:35.330Z,1002.36
2018-05-12T12:08:35.362Z,1002.39
2018-05-12T12:09:35.320Z,1002.35
2018-05-12T12:10:35.332Z,1002.31
2018-05-12T12:11:35.316Z,1002.26
2018-05-12T12:12:36.136Z,1002.27
2018-05-12T12:13:35.338Z,1002.22
2018-05-12T12:14:35.310Z,1002.21
2018-05-12T12:15:35.298Z,1002.18
2018-05-12T12:16:35.347Z,1002.19
2018-05-12T12:17:35.295Z,1002.17
2018-05-12T12:18:35.326Z,1002.17
2018-05-12T12:19:35.290Z,1002.17
2018-05-12T12:20:35.294Z,1002.19
2018-05-12T12:21:35.282Z,1002.16
2018-05-12T12:22:35.278Z,1002.18
2018-05-12T12:23:35.317Z,1002.16
2018-05-12T12:24:35.303Z,1002.16
2018-05-12T12:25:35.284Z,1002.16
2018-05-12T12:26:35.270Z,1002.09
2018-05-12T12:27:35.260Z,1002.15
2018-05-12T12:28:35.254Z,1002.14
2018-05-12T12:29:35.300Z,1002.13
2018-05-12T12:30:35.246Z,1002.12
2018-05-12T12:31:35.255Z,1002.12
2018-05-12T12:32:35.232Z,1002.19
2018-05-12T12:33:35.235Z,1002.17
2018-05-12T12:34:35.230Z,1002.17
2018-05-12T12:35:35.272Z,1002.11
2018-05-12T12:36:35.230Z,1002.11
2018-05-12T12:37:35.231Z,1002.09
2018-05-12T12:38:35.239Z,1002.08
2018-05-12T12:39:35.241Z,1002.07
2018-05-12T12:40:35.242Z,1002.02
2018-05-12T12:41:35.213Z,1001.99
2018-05-12T12:42:35.271Z,1001.98
2018-05-12T12:43:35.209Z,1001.99
2018-05-12T12:44:35.202Z,1001.92
2018-05-12T12:45:35.269Z,1001.95
2018-05-12T12:46:35.190Z,1001.90
2018-05-12T12:47:35.203Z,1001.90
2018-05-12T12:48:35.198Z,1001.85
2018-05-12T12:49:36.144Z,1001.87
2018-05-12T12:50:35.185Z,1001.88
2018-05-12T12:51:35.197Z,1001.90
2018-05-12T12:52:35.180Z,1001.88
2018-05-12T12:53:35.172Z,1001.90
2018-05-12T12:54:35.171Z,1001.85
2018-05-12T12:55:36.150Z,1001.89
2018-05-12T12:56:35.192Z,1001.86
2018-05-12T12:57:35.157Z,1001.87
2018-05-12T12:58:35.148Z,1001.88
2018-05-12T12:59:35.157Z,1001.87
2018-05-12T13:00:35.148Z,1001.87
2018-05-12T13:01:35.176Z,1001.82
2018-05-12T13:02:35.144Z,1001.81
2018-05-12T13:03:35.146Z,1001.83
2018-05-12T13:04:35.167Z,1001.82
2018-05-12T13:05:35.137Z,1001.81
2018-05-12T13:06:35.145Z,1001.77
2018-05-12T13:07:35.198Z,1001.76
2018-05-12T13:08:35.135Z,1001.76
2018-05-12T13:09:35.132Z,1001.79
2018-05-12T13:10:35.128Z,1001.75
2018-05-12T13:11:35.123Z,1001.74
2018-05-12T13:12:35.133Z,1001.73
2018-05-12T13:13:35.124Z,1001.79
2018-05-12T13:14:35.141Z,1001.69
2018-05-12T13:15:35.105Z,1001.66
2018-05-12T13:16:35.115Z,1001.69
2018-05-12T13:17:35.096Z,1001.69
2018-05-12T13:18:35.091Z,1001.70
2018-05-12T13:19:35.135Z,1001.69
2018-05-12T13:20:35.131Z,1001.66
2018-05-12T13:21:35.145Z,1001.64
2018-05-12T13:22:35.094Z,1001.61
2018-05-12T13:23:35.087Z,1001.60
2018-05-12T13:24:35.115Z,1001.58
2018-05-12T13:25:35.081Z,1001.59
2018-05-12T13:26:35.080Z,1001.61
2018-05-12T13:27:35.078Z,1001.61
2018-05-12T13:28:35.069Z,1001.60
2018-05-12T13:29:35.113Z,1001.63
2018-05-12T13:30:35.063Z,1001.60
2018-05-12T13:31:35.054Z,1001.58
2018-05-12T13:32:35.053Z,1001.57
2018-05-12T13:33:35.116Z,1001.56
2018-05-12T13:34:35.115Z,1001.57
2018-05-12T13:35:35.124Z,1001.56
2018-05-12T13:36:35.044Z,1001.58
2018-05-12T13:37:35.047Z,1001.58
2018-05-12T13:38:35.051Z,1001.59
2018-05-12T13:39:35.034Z,1001.54
2018-05-12T13:40:35.043Z,1001.57
2018-05-12T13:41:35.033Z,1001.58
2018-05-12T13:42:35.067Z,1001.56
2018-05-12T13:43:35.031Z,1001.58
2018-05-12T13:44:35.090Z,1001.58
2018-05-12T13:45:35.106Z,1001.56
2018-05-12T13:46:35.001Z,1001.65
2018-05-12T13:47:35.019Z,1001.63
2018-05-12T13:48:35.007Z,1001.81
2018-05-12T13:49:35.013Z,1001.67
2018-05-12T13:50:34.998Z,1001.45
2018-05-12T13:51:35.674Z,1001.41
2018-05-12T13:52:34.996Z,1001.41
2018-05-12T13:53:34.985Z,1001.41
2018-05-12T13:54:36.177Z,1001.43
2018-05-12T13:55:35.004Z,1001.42
2018-05-12T13:56:34.984Z,1001.41
2018-05-12T13:57:34.987Z,1001.35
2018-05-12T13:58:35.129Z,1001.42
2018-05-12T13:59:34.982Z,1001.41
2018-05-12T14:00:35.211Z,1001.41
2018-05-12T14:01:34.971Z,1001.44
2018-05-12T14:02:34.964Z,1001.34
2018-05-12T14:03:35.073Z,1001.35
2018-05-12T14:04:34.980Z,1001.31
2018-05-12T14:05:34.958Z,1001.33
2018-05-12T14:06:34.978Z,1001.35
2018-05-12T14:07:34.964Z,1001.37
2018-05-12T14:08:35.691Z,1001.38
2018-05-12T14:09:34.950Z,1001.38
2018-05-12T14:10:34.956Z,1001.41
2018-05-12T14:11:34.974Z,1001.42
2018-05-12T14:12:34.937Z,1001.40
2018-05-12T14:13:34.942Z,1001.30
2018-05-12T14:14:34.929Z,1001.50
2018-05-12T14:15:34.948Z,1001.31
2018-05-12T14:16:34.949Z,1001.35
2018-05-12T14:17:34.932Z,1001.35
2018-05-12T14:18:34.929Z,1001.31
2018-05-12T14:19:34.922Z,1001.28
2018-05-12T14:20:34.917Z,1001.25
2018-05-12T14:21:34.943Z,1001.24
2018-05-12T14:22:34.923Z,1001.28
2018-05-12T14:23:35.045Z,1001.27
2018-05-12T14:24:34.908Z,1001.25
2018-05-12T14:25:34.904Z,1001.32
2018-05-12T14:26:34.910Z,1001.31
2018-05-12T14:27:34.901Z,1001.28
2018-05-12T14:28:34.900Z,1001.28
2018-05-12T14:29:34.895Z,1001.30
2018-05-12T14:30:34.888Z,1001.27
2018-05-12T14:31:34.879Z,1001.31
2018-05-12T14:32:34.885Z,1001.24
2018-05-12T14:33:34.883Z,1001.18
2018-05-12T14:34:34.950Z,1001.20
2018-05-12T14:35:34.864Z,1001.21
2018-05-12T14:36:34.879Z,1001.22
2018-05-12T14:37:34.874Z,1001.23
2018-05-12T14:38:34.867Z,1001.16
2018-05-12T14:39:34.875Z,1001.14
2018-05-12T14:40:35.233Z,1001.12
2018-05-12T14:41:34.861Z,1001.14
2018-05-12T14:42:34.852Z,1001.15
2018-05-12T14:43:34.854Z,1001.19
2018-05-12T14:44:34.845Z,1001.21
2018-05-12T14:45:34.842Z,1001.18
2018-05-12T14:46:34.876Z,1001.23
2018-05-12T14:47:34.827Z,1001.21
2018-05-12T14:48:34.892Z,1001.20
2018-05-12T14:49:34.832Z,1001.23
2018-05-12T14:50:34.860Z,1001.21
2018-05-12T14:51:34.829Z,1001.22
2018-05-12T14:52:34.823Z,1001.25
2018-05-12T14:53:34.821Z,1001.20
2018-05-12T14:54:34.822Z,1001.21
2018-05-12T14:55:35.709Z,1001.41
2018-05-12T14:56:34.817Z,1001.42
2018-05-12T14:57:34.837Z,1001.63
2018-05-12T14:58:34.806Z,1001.63
2018-05-12T14:59:34.836Z,1001.39
2018-05-12T15:00:34.828Z,1001.43
2018-05-12T15:01:34.788Z,1001.36
2018-05-12T15:02:34.784Z,1001.19
2018-05-12T15:03:34.782Z,1001.20
2018-05-12T15:04:34.788Z,1001.18
2018-05-12T15:05:34.812Z,1001.14
2018-05-12T15:06:34.835Z,1001.16
2018-05-12T15:07:35.204Z,1001.11
2018-05-12T15:08:34.763Z,1001.09
2018-05-12T15:09:34.768Z,1001.06
2018-05-12T15:10:34.766Z,1001.08
2018-05-12T15:11:34.757Z,1001.03
2018-05-12T15:12:34.765Z,1001.05
2018-05-12T15:13:34.777Z,1001.04
2018-05-12T15:14:34.753Z,1001.00
2018-05-12T15:15:34.748Z,1001.04
2018-05-12T15:16:34.743Z,1001.01
2018-05-12T15:17:34.747Z,1001.00
2018-05-12T15:18:34.770Z,1001.01
2018-05-12T15:19:34.743Z,1000.95
2018-05-12T15:20:34.732Z,1000.94
2018-05-12T15:21:34.730Z,1000.68
2018-05-12T15:22:34.725Z,1000.91
2018-05-12T15:23:34.743Z,1000.89
2018-05-12T15:24:34.723Z,1000.82
2018-05-12T15:25:34.733Z,1000.85
2018-05-12T15:26:34.715Z,1000.85
2018-05-12T15:27:34.710Z,1000.83
2018-05-12T15:28:34.702Z,1000.84
2018-05-12T15:29:34.713Z,1000.82
2018-05-12T15:30:34.701Z,1000.80
2018-05-12T15:31:34.695Z,1000.82
2018-05-12T15:32:34.691Z,1000.80
2018-05-12T15:33:34.725Z,1000.79
2018-05-12T15:34:34.688Z,1000.84
2018-05-12T15:35:34.690Z,1000.85
2018-05-12T15:36:34.671Z,1000.83
2018-05-12T15:37:34.681Z,1000.82
2018-05-12T15:38:34.700Z,1000.83
2018-05-12T15:39:34.729Z,1000.82
2018-05-12T15:40:34.669Z,1000.83
2018-05-12T15:41:34.665Z,1000.88
2018-05-12T15:42:34.654Z,1000.81
2018-05-12T15:43:34.664Z,1000.83
2018-05-12T15:44:34.653Z,1000.82
2018-05-12T15:45:34.801Z,1000.85
2018-05-12T15:46:34.644Z,1000.82
2018-05-12T15:47:34.644Z,1000.83
2018-05-12T15:48:34.660Z,1000.81
2018-05-12T15:49:34.643Z,1000.82
2018-05-12T15:50:34.647Z,1000.83
2018-05-12T15:51:34.645Z,1000.79
2018-05-12T15:52:34.630Z,1000.74
2018-05-12T15:53:34.631Z,1000.76
2018-05-12T15:54:34.623Z,1000.73
2018-05-12T15:55:34.621Z,1000.70
2018-05-12T15:56:34.649Z,1000.71
2018-05-12T15:57:34.736Z,1000.73
2018-05-12T15:58:34.606Z,1000.71
2018-05-12T15:59:34.597Z,1000.76
2018-05-12T16:00:34.597Z,1000.69
2018-05-12T16:01:34.593Z,1000.68
2018-05-12T16:02:34.597Z,1000.65
2018-05-12T16:03:34.599Z,1000.73
2018-05-12T16:04:34.580Z,1000.69
2018-05-12T16:05:34.590Z,1000.74
2018-05-12T16:06:34.583Z,1000.67
2018-05-12T16:07:34.729Z,1000.68
2018-05-12T16:08:34.675Z,1000.67
2018-05-12T16:09:34.568Z,1000.65
2018-05-12T16:10:34.569Z,1000.62
2018-05-12T16:11:34.568Z,1000.67
2018-05-12T16:12:34.559Z,1000.68
2018-05-12T16:13:34.561Z,1000.64
2018-05-12T16:14:34.544Z,1000.63
2018-05-12T16:15:34.545Z,1000.62
2018-05-12T16:16:34.544Z,1000.61
2018-05-12T16:17:34.551Z,1000.61
2018-05-12T16:18:34.578Z,1000.59
2018-05-12T16:19:34.529Z,1000.60
2018-05-12T16:20:34.540Z,1000.55
2018-05-12T16:21:34.562Z,1000.60
2018-05-12T16:22:34.523Z,1000.61
2018-05-12T16:23:34.518Z,1000.58
2018-05-12T16:24:35.251Z,1000.56
2018-05-12T16:25:34.519Z,1000.58
2018-05-12T16:26:34.565Z,1000.57
2018-05-12T16:27:34.501Z,1000.56
2018-05-12T16:28:34.499Z,1000.59
2018-05-12T16:29:34.498Z,1000.57
2018-05-12T16:30:34.492Z,1000.63
2018-05-12T16:31:34.508Z,1000.60
2018-05-12T16:32:34.509Z,1000.60
2018-05-12T16:33:34.483Z,1000.54
2018-05-12T16:34:34.482Z,1000.55
2018-05-12T16:35:34.473Z,1000.54
2018-05-12T16:36:34.472Z,1000.53
2018-05-12T16:37:34.483Z,1000.53
2018-05-12T16:38:34.461Z,1000.51